sensor_id;sensor_type;location;lat;lon;timestamp;pressure;altitude;pressure_sealevel;temperature;humidity
14343;BME280;7255;53.596;9.960;2022-08-06T00:01:36;102074.06;;;13.41;nan
14343;BME280;7255;53.596;9.960;2022-08-06T00:04:03;102078.66;;;13.34;nan
14343;BME280;7255;53.596;9.960;2022-08-06T00:06:29;102085.28;;;13.31;nan
14343;BME280;7255;53.596;9.960;2022-08-06T00:08:55;102087.34;;;13.29;nan
14343;BME280;7255;53.596;9.960;2022-08-06T00:11:21;102090.84;;;13.29;nan
14343;BME280;7255;53.596;9.960;2022-08-06T00:13:49;102086.97;;;13.32;nan
14343;BME280;7255;53.596;9.960;2022-08-06T00:16:15;102081.97;;;13.36;nan
14343;BME280;7255;53.596;9.960;2022-08-06T00:18:42;102092.31;;;13.25;nan
14343;BME280;7255;53.596;9.960;2022-08-06T00:21:08;102097.75;;;13.19;nan
14343;BME280;7255;53.596;9.960;2022-08-06T00:23:35;102097.34;;;13.15;nan
14343;BME280;7255;53.596;9.960;2022-08-06T00:26:01;102096.91;;;13.18;nan
14343;BME280;7255;53.596;9.960;2022-08-06T00:28:27;102094.41;;;13.17;nan
14343;BME280;7255;53.596;9.960;2022-08-06T00:30:55;102110.59;;;13.17;nan
14343;BME280;7255;53.596;9.960;2022-08-06T00:33:21;102106.44;;;13.14;nan
14343;BME280;7255;53.596;9.960;2022-08-06T00:35:48;102095.66;;;13.07;nan
14343;BME280;7255;53.596;9.960;2022-08-06T00:38:14;102101.88;;;13.01;nan
14343;BME280;7255;53.596;9.960;2022-08-06T00:40:41;102108.53;;;13.05;nan
14343;BME280;7255;53.596;9.960;2022-08-06T00:43:07;102114.75;;;13.13;nan
14343;BME280;7255;53.596;9.960;2022-08-06T00:45:34;102110.63;;;13.10;nan
14343;BME280;7255;53.596;9.960;2022-08-06T00:48:03;102117.66;;;13.04;nan
14343;BME280;7255;53.596;9.960;2022-08-06T00:50:29;102119.31;;;13.05;nan
14343;BME280;7255;53.596;9.960;2022-08-06T00:52:56;102115.59;;;13.06;nan
14343;BME280;7255;53.596;9.960;2022-08-06T00:55:23;102138.00;;;13.07;nan
14343;BME280;7255;53.596;9.960;2022-08-06T00:57:49;102139.69;;;13.08;nan
14343;BME280;7255;53.596;9.960;2022-08-06T01:00:16;102138.41;;;13.10;nan
14343;BME280;7255;53.596;9.960;2022-08-06T01:02:42;102141.75;;;13.06;nan
14343;BME280;7255;53.596;9.960;2022-08-06T01:05:10;102139.25;;;12.98;nan
14343;BME280;7255;53.596;9.960;2022-08-06T01:07:36;102147.53;;;12.96;nan
14343;BME280;7255;53.596;9.960;2022-08-06T01:10:03;102143.41;;;12.94;nan
14343;BME280;7255;53.596;9.960;2022-08-06T01:12:30;102148.78;;;12.94;nan
14343;BME280;7255;53.596;9.960;2022-08-06T01:14:56;102153.78;;;12.90;nan
14343;BME280;7255;53.596;9.960;2022-08-06T01:17:27;102144.63;;;12.84;nan
14343;BME280;7255;53.596;9.960;2022-08-06T01:19:59;102152.91;;;12.83;nan
14343;BME280;7255;53.596;9.960;2022-08-06T01:22:53;102157.91;;;12.79;nan
14343;BME280;7255;53.596;9.960;2022-08-06T01:28:43;102162.88;;;12.76;nan
14343;BME280;7255;53.596;9.960;2022-08-06T01:31:14;102169.31;;;12.88;nan
14343;BME280;7255;53.596;9.960;2022-08-06T01:33:46;102166.59;;;12.75;nan
14343;BME280;7255;53.596;9.960;2022-08-06T01:36:19;102169.09;;;12.69;nan
14343;BME280;7255;53.596;9.960;2022-08-06T01:38:49;102167.00;;;12.71;nan
14343;BME280;7255;53.596;9.960;2022-08-06T01:41:19;102175.28;;;12.63;nan
14343;BME280;7255;53.596;9.960;2022-08-06T01:44:04;102171.12;;;12.67;nan
14343;BME280;7255;53.596;9.960;2022-08-06T01:46:33;102174.06;;;12.66;nan
14343;BME280;7255;53.596;9.960;2022-08-06T01:49:02;102170.28;;;12.54;nan
14343;BME280;7255;53.596;9.960;2022-08-06T01:51:30;102178.59;;;12.65;nan
14343;BME280;7255;53.596;9.960;2022-08-06T01:53:58;102179.84;;;12.63;nan
14343;BME280;7255;53.596;9.960;2022-08-06T01:56:26;102178.59;;;12.65;nan
14343;BME280;7255;53.596;9.960;2022-08-06T01:58:55;102172.37;;;12.65;nan
14343;BME280;7255;53.596;9.960;2022-08-06T02:01:26;102178.13;;;12.48;nan
14343;BME280;7255;53.596;9.960;2022-08-06T02:03:55;102169.03;;;12.56;nan
14343;BME280;7255;53.596;9.960;2022-08-06T02:06:24;102173.63;;;12.62;nan
14343;BME280;7255;53.596;9.960;2022-08-06T02:08:54;102166.16;;;12.64;nan
14343;BME280;7255;53.596;9.960;2022-08-06T02:11:21;102174.41;;;12.56;nan
14343;BME280;7255;53.596;9.960;2022-08-06T02:13:48;102173.16;;;12.52;nan
14343;BME280;7255;53.596;9.960;2022-08-06T02:16:15;102172.75;;;12.48;nan
14343;BME280;7255;53.596;9.960;2022-08-06T02:18:45;102176.06;;;12.50;nan
14343;BME280;7255;53.596;9.960;2022-08-06T02:21:16;102180.62;;;12.50;nan
14343;BME280;7255;53.596;9.960;2022-08-06T02:23:44;102179.37;;;12.46;nan
14343;BME280;7255;53.596;9.960;2022-08-06T02:26:11;102175.63;;;12.40;nan
14343;BME280;7255;53.596;9.960;2022-08-06T02:28:41;102177.28;;;12.41;nan
14343;BME280;7255;53.596;9.960;2022-08-06T02:31:08;102186.41;;;12.40;nan
14343;BME280;7255;53.596;9.960;2022-08-06T02:33:35;102171.88;;;12.35;nan
14343;BME280;7255;53.596;9.960;2022-08-06T02:36:11;102182.25;;;12.38;nan
14343;BME280;7255;53.596;9.960;2022-08-06T02:38:43;102184.69;;;12.32;nan
14343;BME280;7255;53.596;9.960;2022-08-06T02:41:16;102181.38;;;12.30;nan
14343;BME280;7255;53.596;9.960;2022-08-06T02:43:49;102187.19;;;12.27;nan
14343;BME280;7255;53.596;9.960;2022-08-06T02:46:20;102192.16;;;12.30;nan
14343;BME280;7255;53.596;9.960;2022-08-06T02:48:51;102188.44;;;12.31;nan
14343;BME280;7255;53.596;9.960;2022-08-06T02:51:25;102198.78;;;12.28;nan
14343;BME280;7255;53.596;9.960;2022-08-06T02:53:58;102188.81;;;12.22;nan
14343;BME280;7255;53.596;9.960;2022-08-06T02:56:26;102190.91;;;12.26;nan
14343;BME280;7255;53.596;9.960;2022-08-06T02:58:55;102188.84;;;12.28;nan
14343;BME280;7255;53.596;9.960;2022-08-06T03:01:26;102190.91;;;12.26;nan
14343;BME280;7255;53.596;9.960;2022-08-06T03:03:57;102195.03;;;12.29;nan
14343;BME280;7255;53.596;9.960;2022-08-06T03:06:29;102196.28;;;12.26;nan
14343;BME280;7255;53.596;9.960;2022-08-06T03:08:56;102202.87;;;12.17;nan
14343;BME280;7255;53.596;9.960;2022-08-06T03:11:24;102198.75;;;12.21;nan
14343;BME280;7255;53.596;9.960;2022-08-06T03:13:52;102205.78;;;12.16;nan
14343;BME280;7255;53.596;9.960;2022-08-06T03:16:20;102211.09;;;12.02;nan
14343;BME280;7255;53.596;9.960;2022-08-06T03:18:47;102201.19;;;12.09;nan
14343;BME280;7255;53.596;9.960;2022-08-06T03:21:15;102205.75;;;12.09;nan
14343;BME280;7255;53.596;9.960;2022-08-06T03:23:44;102202.81;;;12.04;nan
14343;BME280;7255;53.596;9.960;2022-08-06T03:26:12;102207.00;;;12.13;nan
14343;BME280;7255;53.596;9.960;2022-08-06T03:28:39;102202.41;;;12.07;nan
14343;BME280;7255;53.596;9.960;2022-08-06T03:31:05;102212.72;;;11.97;nan
14343;BME280;7255;53.596;9.960;2022-08-06T03:33:32;102193.66;;;11.98;nan
14343;BME280;7255;53.596;9.960;2022-08-06T03:36:02;102204.81;;;11.95;nan
14343;BME280;7255;53.596;9.960;2022-08-06T03:38:37;102200.22;;;11.89;nan
14343;BME280;7255;53.596;9.960;2022-08-06T03:41:07;102223.37;;;11.83;nan
14343;BME280;7255;53.596;9.960;2022-08-06T03:43:35;102212.94;;;11.73;nan
14343;BME280;7255;53.596;9.960;2022-08-06T03:46:04;102215.03;;;11.78;nan
14343;BME280;7255;53.596;9.960;2022-08-06T03:48:33;102218.88;;;11.90;nan
14343;BME280;7255;53.596;9.960;2022-08-06T03:51:03;102226.66;;;11.79;nan
14343;BME280;7255;53.596;9.960;2022-08-06T03:53:31;102234.16;;;11.83;nan
14343;BME280;7255;53.596;9.960;2022-08-06T03:56:02;102240.03;;;11.93;nan
14343;BME280;7255;53.596;9.960;2022-08-06T03:58:32;102246.56;;;11.84;nan
14343;BME280;7255;53.596;9.960;2022-08-06T04:01:03;102241.38;;;11.83;nan
14343;BME280;7255;53.596;9.960;2022-08-06T04:03:31;102231.59;;;11.75;nan
14343;BME280;7255;53.596;9.960;2022-08-06T04:05:58;102241.19;;;11.84;nan
14343;BME280;7255;53.596;9.960;2022-08-06T04:08:25;102244.50;;;11.86;nan
14343;BME280;7255;53.596;9.960;2022-08-06T04:10:52;102250.44;;;11.97;nan
14343;BME280;7255;53.596;9.960;2022-08-06T04:13:20;102236.97;;;11.97;nan
14343;BME280;7255;53.596;9.960;2022-08-06T04:15:49;102239.22;;;11.93;nan
14343;BME280;7255;53.596;9.960;2022-08-06T04:18:19;102241.72;;;12.01;nan
14343;BME280;7255;53.596;9.960;2022-08-06T04:20:47;102244.78;;;11.91;nan
14343;BME280;7255;53.596;9.960;2022-08-06T04:23:15;102246.13;;;11.81;nan
14343;BME280;7255;53.596;9.960;2022-08-06T04:25:43;102246.56;;;11.84;nan
14343;BME280;7255;53.596;9.960;2022-08-06T04:28:12;102252.22;;;11.89;nan
14343;BME280;7255;53.596;9.960;2022-08-06T04:30:40;102255.00;;;11.96;nan
14343;BME280;7255;53.596;9.960;2022-08-06T04:33:10;102254.13;;;11.96;nan
14343;BME280;7255;53.596;9.960;2022-08-06T04:35:39;102263.69;;;11.98;nan
14343;BME280;7255;53.596;9.960;2022-08-06T04:38:07;102256.25;;;12.00;nan
14343;BME280;7255;53.596;9.960;2022-08-06T04:40:35;102267.06;;;12.07;nan
14343;BME280;7255;53.596;9.960;2022-08-06T04:43:02;102271.25;;;12.16;nan
14343;BME280;7255;53.596;9.960;2022-08-06T04:45:29;102273.31;;;12.14;nan
14343;BME280;7255;53.596;9.960;2022-08-06T04:47:56;102282.53;;;12.26;nan
14343;BME280;7255;53.596;9.960;2022-08-06T04:50:24;102285.47;;;12.31;nan
14343;BME280;7255;53.596;9.960;2022-08-06T04:52:50;102296.69;;;12.42;nan
14343;BME280;7255;53.596;9.960;2022-08-06T04:55:18;102303.38;;;12.46;nan
14343;BME280;7255;53.596;9.960;2022-08-06T04:57:44;102302.56;;;12.52;nan
14343;BME280;7255;53.596;9.960;2022-08-06T05:00:12;102310.03;;;12.50;nan
14343;BME280;7255;53.596;9.960;2022-08-06T05:02:38;102312.97;;;12.55;nan
14343;BME280;7255;53.596;9.960;2022-08-06T05:05:07;102305.97;;;12.67;nan
14343;BME280;7255;53.596;9.960;2022-08-06T05:07:37;102303.94;;;12.69;nan
14343;BME280;7255;53.596;9.960;2022-08-06T05:10:05;102314.28;;;12.73;nan
14343;BME280;7255;53.596;9.960;2022-08-06T05:12:34;102307.69;;;12.75;nan
14343;BME280;7255;53.596;9.960;2022-08-06T05:15:08;102317.66;;;12.81;nan
14343;BME280;7255;53.596;9.960;2022-08-06T05:17:46;102319.34;;;12.82;nan
14343;BME280;7255;53.596;9.960;2022-08-06T05:20:16;102328.09;;;12.98;nan
14343;BME280;7255;53.596;9.960;2022-08-06T05:22:47;102316.53;;;13.10;nan
14343;BME280;7255;53.596;9.960;2022-08-06T05:25:15;102333.56;;;13.18;nan
14343;BME280;7255;53.596;9.960;2022-08-06T05:27:42;102337.34;;;13.30;nan
14343;BME280;7255;53.596;9.960;2022-08-06T05:30:09;102343.62;;;13.37;nan
14343;BME280;7255;53.596;9.960;2022-08-06T05:32:42;102345.53;;;13.57;nan
14343;BME280;7255;53.596;9.960;2022-08-06T05:35:09;102354.91;;;13.81;nan
14343;BME280;7255;53.596;9.960;2022-08-06T05:37:35;102361.59;;;14.05;nan
14343;BME280;7255;53.596;9.960;2022-08-06T05:40:05;102358.63;;;14.40;nan
14343;BME280;7255;53.596;9.960;2022-08-06T05:42:32;102358.19;;;14.70;nan
14343;BME280;7255;53.596;9.960;2022-08-06T05:44:59;102358.19;;;14.70;nan
14343;BME280;7255;53.596;9.960;2022-08-06T05:47:27;102369.78;;;14.83;nan
14343;BME280;7255;53.596;9.960;2022-08-06T05:50:05;102374.31;;;14.96;nan
14343;BME280;7255;53.596;9.960;2022-08-06T05:52:36;102376.78;;;15.05;nan
14343;BME280;7255;53.596;9.960;2022-08-06T05:55:06;102367.16;;;15.15;nan
14343;BME280;7255;53.596;9.960;2022-08-06T05:57:37;102375.41;;;15.34;nan
14343;BME280;7255;53.596;9.960;2022-08-06T06:00:07;102386.16;;;15.47;nan
14343;BME280;7255;53.596;9.960;2022-08-06T06:02:36;102387.34;;;15.58;nan
14343;BME280;7255;53.596;9.960;2022-08-06T06:05:05;102385.19;;;15.73;nan
14343;BME280;7255;53.596;9.960;2022-08-06T06:07:33;102398.47;;;15.82;nan
14343;BME280;7255;53.596;9.960;2022-08-06T06:10:01;102397.28;;;15.77;nan
14343;BME280;7255;53.596;9.960;2022-08-06T06:12:29;102390.28;;;15.56;nan
14343;BME280;7255;53.596;9.960;2022-08-06T06:14:57;102391.53;;;15.54;nan
14343;BME280;7255;53.596;9.960;2022-08-06T06:17:32;102391.34;;;15.49;nan
14343;BME280;7255;53.596;9.960;2022-08-06T06:20:08;102391.66;;;15.34;nan
14343;BME280;7255;53.596;9.960;2022-08-06T06:22:43;102396.25;;;15.33;nan
14343;BME280;7255;53.596;9.960;2022-08-06T06:25:15;102394.56;;;15.32;nan
14343;BME280;7255;53.596;9.960;2022-08-06T06:27:47;102393.53;;;15.33;nan
14343;BME280;7255;53.596;9.960;2022-08-06T06:30:21;102401.66;;;15.33;nan
14343;BME280;7255;53.596;9.960;2022-08-06T06:32:54;102410.00;;;15.32;nan
14343;BME280;7255;53.596;9.960;2022-08-06T06:35:31;102407.50;;;15.30;nan
14343;BME280;7255;53.596;9.960;2022-08-06T06:38:07;102412.50;;;15.33;nan
14343;BME280;7255;53.596;9.960;2022-08-06T06:40:46;102406.22;;;15.33;nan
14343;BME280;7255;53.596;9.960;2022-08-06T06:43:19;102411.62;;;15.33;nan
14343;BME280;7255;53.596;9.960;2022-08-06T06:45:53;102421.56;;;15.46;nan
14343;BME280;7255;53.596;9.960;2022-08-06T06:48:25;102417.03;;;15.39;nan
14343;BME280;7255;53.596;9.960;2022-08-06T06:50:55;102409.09;;;15.45;nan
14343;BME280;7255;53.596;9.960;2022-08-06T06:53:25;102414.09;;;15.48;nan
14343;BME280;7255;53.596;9.960;2022-08-06T06:55:55;102410.31;;;15.49;nan
14343;BME280;7255;53.596;9.960;2022-08-06T06:58:27;102409.09;;;15.45;nan
14343;BME280;7255;53.596;9.960;2022-08-06T07:00:56;102416.06;;;15.66;nan
14343;BME280;7255;53.596;9.960;2022-08-06T07:03:23;102413.56;;;15.64;nan
14343;BME280;7255;53.596;9.960;2022-08-06T07:05:50;102417.66;;;15.80;nan
14343;BME280;7255;53.596;9.960;2022-08-06T07:08:19;102425.56;;;15.88;nan
14343;BME280;7255;53.596;9.960;2022-08-06T07:10:46;102425.88;;;15.98;nan
14343;BME280;7255;53.596;9.960;2022-08-06T07:13:15;102436.09;;;16.03;nan
14343;BME280;7255;53.596;9.960;2022-08-06T07:15:45;102439.91;;;16.21;nan
14343;BME280;7255;53.596;9.960;2022-08-06T07:18:12;102449.06;;;16.45;nan
14343;BME280;7255;53.596;9.960;2022-08-06T07:20:42;102454.03;;;16.73;nan
14343;BME280;7255;53.596;9.960;2022-08-06T07:23:09;102446.94;;;16.72;nan
14343;BME280;7255;53.596;9.960;2022-08-06T07:25:39;102449.72;;;16.90;nan
14343;BME280;7255;53.596;9.960;2022-08-06T07:28:09;102460.44;;;17.04;nan
14343;BME280;7255;53.596;9.960;2022-08-06T07:30:36;102461.47;;;17.21;nan
14343;BME280;7255;53.596;9.960;2022-08-06T07:33:05;102460.44;;;17.04;nan
14343;BME280;7255;53.596;9.960;2022-08-06T07:35:31;102454.69;;;16.93;nan
14343;BME280;7255;53.596;9.960;2022-08-06T07:38:00;102466.84;;;16.91;nan
14343;BME280;7255;53.596;9.960;2022-08-06T07:40:28;102469.78;;;16.89;nan
14343;BME280;7255;53.596;9.960;2022-08-06T07:43:02;102475.28;;;16.83;nan
14343;BME280;7255;53.596;9.960;2022-08-06T07:45:32;102470.50;;;16.53;nan
14343;BME280;7255;53.596;9.960;2022-08-06T07:48:06;102478.09;;;16.44;nan
14343;BME280;7255;53.596;9.960;2022-08-06T07:50:33;102465.75;;;16.23;nan
14343;BME280;7255;53.596;9.960;2022-08-06T07:53:00;102463.97;;;16.35;nan
14343;BME280;7255;53.596;9.960;2022-08-06T07:55:27;102465.62;;;16.62;nan
14343;BME280;7255;53.596;9.960;2022-08-06T07:57:55;102471.97;;;16.74;nan
14343;BME280;7255;53.596;9.960;2022-08-06T08:00:23;102485.16;;;16.96;nan
14343;BME280;7255;53.596;9.960;2022-08-06T08:02:50;102476.66;;;17.10;nan
14343;BME280;7255;53.596;9.960;2022-08-06T08:05:38;102483.53;;;16.95;nan
14343;BME280;7255;53.596;9.960;2022-08-06T08:08:24;102474.41;;;16.82;nan
14343;BME280;7255;53.596;9.960;2022-08-06T08:10:51;102469.94;;;16.69;nan
14343;BME280;7255;53.596;9.960;2022-08-06T08:13:19;102469.00;;;16.57;nan
14343;BME280;7255;53.596;9.960;2022-08-06T08:15:47;102472.09;;;16.61;nan
14343;BME280;7255;53.596;9.960;2022-08-06T08:18:14;102476.75;;;16.53;nan
14343;BME280;7255;53.596;9.960;2022-08-06T08:20:42;102483.03;;;16.54;nan
14343;BME280;7255;53.596;9.960;2022-08-06T08:23:12;102468.97;;;16.64;nan
14343;BME280;7255;53.596;9.960;2022-08-06T08:25:39;102477.41;;;16.74;nan
14343;BME280;7255;53.596;9.960;2022-08-06T08:28:05;102473.09;;;16.91;nan
14343;BME280;7255;53.596;9.960;2022-08-06T08:30:32;102473.53;;;16.88;nan
14343;BME280;7255;53.596;9.960;2022-08-06T08:32:59;102481.25;;;17.10;nan
14343;BME280;7255;53.596;9.960;2022-08-06T08:35:25;102467.91;;;17.08;nan
14343;BME280;7255;53.596;9.960;2022-08-06T08:37:53;102476.97;;;17.21;nan
14343;BME280;7255;53.596;9.960;2022-08-06T08:40:20;102482.38;;;17.21;nan
14343;BME280;7255;53.596;9.960;2022-08-06T08:42:49;102485.88;;;17.09;nan
14343;BME280;7255;53.596;9.960;2022-08-06T08:45:19;102484.28;;;17.02;nan
14343;BME280;7255;53.596;9.960;2022-08-06T08:47:52;102478.97;;;17.25;nan
14343;BME280;7255;53.596;9.960;2022-08-06T08:50:20;102469.91;;;17.50;nan
14343;BME280;7255;53.596;9.960;2022-08-06T08:52:50;102479.41;;;17.59;nan
14343;BME280;7255;53.596;9.960;2022-08-06T08:55:22;102481.91;;;17.61;nan
14343;BME280;7255;53.596;9.960;2022-08-06T08:57:50;102472.66;;;17.62;nan
14343;BME280;7255;53.596;9.960;2022-08-06T09:00:19;102475.66;;;17.60;nan
14343;BME280;7255;53.596;9.960;2022-08-06T09:02:45;102478.03;;;17.68;nan
14343;BME280;7255;53.596;9.960;2022-08-06T09:05:12;102484.13;;;17.82;nan
14343;BME280;7255;53.596;9.960;2022-08-06T09:07:39;102482.66;;;17.98;nan
14343;BME280;7255;53.596;9.960;2022-08-06T09:10:07;102493.00;;;18.08;nan
14343;BME280;7255;53.596;9.960;2022-08-06T09:12:36;102487.91;;;18.12;nan
14343;BME280;7255;53.596;9.960;2022-08-06T09:15:03;102490.06;;;18.33;nan
14343;BME280;7255;53.596;9.960;2022-08-06T09:17:29;102491.88;;;18.51;nan
14343;BME280;7255;53.596;9.960;2022-08-06T09:19:56;102498.13;;;18.52;nan
14343;BME280;7255;53.596;9.960;2022-08-06T09:22:22;102488.06;;;18.28;nan
14343;BME280;7255;53.596;9.960;2022-08-06T09:24:49;102501.91;;;18.27;nan
14343;BME280;7255;53.596;9.960;2022-08-06T09:27:16;102496.72;;;18.37;nan
14343;BME280;7255;53.596;9.960;2022-08-06T09:29:50;102500.25;;;18.50;nan
14343;BME280;7255;53.596;9.960;2022-08-06T09:32:34;102508.09;;;18.58;nan
14343;BME280;7255;53.596;9.960;2022-08-06T09:35:01;102512.94;;;18.67;nan
14343;BME280;7255;53.596;9.960;2022-08-06T09:37:28;102517.34;;;18.80;nan
14343;BME280;7255;53.596;9.960;2022-08-06T09:39:55;102513.34;;;18.83;nan
14343;BME280;7255;53.596;9.960;2022-08-06T09:42:37;102519.72;;;19.12;nan
14343;BME280;7255;53.596;9.960;2022-08-06T09:45:07;102533.31;;;19.24;nan
14343;BME280;7255;53.596;9.960;2022-08-06T09:47:36;102519.31;;;19.32;nan
14343;BME280;7255;53.596;9.960;2022-08-06T09:50:03;102524.28;;;19.35;nan
14343;BME280;7255;53.596;9.960;2022-08-06T09:52:29;102518.56;;;19.49;nan
14343;BME280;7255;53.596;9.960;2022-08-06T09:54:56;102528.19;;;19.92;nan
14343;BME280;7255;53.596;9.960;2022-08-06T09:57:22;102515.66;;;20.08;nan
14343;BME280;7255;53.596;9.960;2022-08-06T09:59:49;102521.22;;;19.84;nan
14343;BME280;7255;53.596;9.960;2022-08-06T10:02:19;102528.09;;;19.34;nan
14343;BME280;7255;53.596;9.960;2022-08-06T10:04:47;102532.63;;;18.93;nan
14343;BME280;7255;53.596;9.960;2022-08-06T10:07:14;102529.88;;;18.58;nan
14343;BME280;7255;53.596;9.960;2022-08-06T10:09:51;102528.69;;;18.65;nan
14343;BME280;7255;53.596;9.960;2022-08-06T10:12:19;102526.59;;;18.79;nan
14343;BME280;7255;53.596;9.960;2022-08-06T10:14:45;102527.91;;;19.12;nan
14343;BME280;7255;53.596;9.960;2022-08-06T10:17:13;102525.84;;;19.19;nan
14343;BME280;7255;53.596;9.960;2022-08-06T10:19:43;102523.47;;;19.35;nan
14343;BME280;7255;53.596;9.960;2022-08-06T10:22:11;102528.37;;;19.61;nan
14343;BME280;7255;53.596;9.960;2022-08-06T10:24:40;102534.97;;;19.89;nan
14343;BME280;7255;53.596;9.960;2022-08-06T10:27:09;102534.22;;;19.53;nan
14343;BME280;7255;53.596;9.960;2022-08-06T10:29:39;102543.66;;;19.74;nan
14343;BME280;7255;53.596;9.960;2022-08-06T10:32:07;102532.59;;;19.81;nan
14343;BME280;7255;53.596;9.960;2022-08-06T10:34:35;102537.59;;;19.84;nan
14343;BME280;7255;53.596;9.960;2022-08-06T10:37:05;102524.69;;;19.96;nan
14343;BME280;7255;53.596;9.960;2022-08-06T10:39:34;102525.25;;;20.10;nan
14343;BME280;7255;53.596;9.960;2022-08-06T10:42:04;102532.34;;;19.42;nan
14343;BME280;7255;53.596;9.960;2022-08-06T10:44:33;102533.44;;;19.29;nan
14343;BME280;7255;53.596;9.960;2022-08-06T10:47:01;102536.09;;;19.12;nan
14343;BME280;7255;53.596;9.960;2022-08-06T10:49:29;102537.00;;;19.06;nan
14343;BME280;7255;53.596;9.960;2022-08-06T10:51:56;102535.72;;;19.09;nan
14343;BME280;7255;53.596;9.960;2022-08-06T10:54:24;102525.00;;;19.42;nan
14343;BME280;7255;53.596;9.960;2022-08-06T10:56:52;102527.06;;;19.64;nan
14343;BME280;7255;53.596;9.960;2022-08-06T10:59:20;102528.13;;;19.75;nan
14343;BME280;7255;53.596;9.960;2022-08-06T11:01:54;102521.56;;;19.88;nan
14343;BME280;7255;53.596;9.960;2022-08-06T11:04:41;102524.41;;;20.10;nan
14343;BME280;7255;53.596;9.960;2022-08-06T11:07:41;102517.31;;;19.68;nan
14343;BME280;7255;53.596;9.960;2022-08-06T11:10:33;102523.47;;;19.35;nan
14343;BME280;7255;53.596;9.960;2022-08-06T11:13:11;102528.78;;;19.41;nan
14343;BME280;7255;53.596;9.960;2022-08-06T11:15:40;102530.31;;;19.49;nan
14343;BME280;7255;53.596;9.960;2022-08-06T11:18:11;102521.16;;;19.55;nan
14343;BME280;7255;53.596;9.960;2022-08-06T11:20:40;102530.72;;;19.70;nan
14343;BME280;7255;53.596;9.960;2022-08-06T11:23:25;102507.25;;;19.69;nan
14343;BME280;7255;53.596;9.960;2022-08-06T11:25:55;102529.19;;;20.03;nan
14343;BME280;7255;53.596;9.960;2022-08-06T11:31:33;102512.50;;;20.16;nan
14343;BME280;7255;53.596;9.960;2022-08-06T11:34:01;102522.28;;;20.12;nan
14343;BME280;7255;53.596;9.960;2022-08-06T11:36:45;102515.47;;;19.97;nan
14343;BME280;7255;53.596;9.960;2022-08-06T11:39:12;102524.09;;;19.66;nan
14343;BME280;7255;53.596;9.960;2022-08-06T11:41:45;102507.97;;;19.76;nan
14343;BME280;7255;53.596;9.960;2022-08-06T11:44:13;102503.25;;;20.17;nan
14343;BME280;7255;53.596;9.960;2022-08-06T11:46:43;102499.28;;;20.58;nan
14343;BME280;7255;53.596;9.960;2022-08-06T11:49:12;102500.63;;;20.56;nan
14343;BME280;7255;53.596;9.960;2022-08-06T11:51:40;102501.31;;;20.63;nan
14343;BME280;7255;53.596;9.960;2022-08-06T11:54:11;102493.84;;;20.75;nan
14343;BME280;7255;53.596;9.960;2022-08-06T11:59:46;102499.31;;;20.75;nan
14343;BME280;7255;53.596;9.960;2022-08-06T12:02:15;102512.88;;;20.70;nan
14343;BME280;7255;53.596;9.960;2022-08-06T12:04:42;102509.06;;;20.71;nan
14343;BME280;7255;53.596;9.960;2022-08-06T12:07:17;102503.94;;;20.58;nan
14343;BME280;7255;53.596;9.960;2022-08-06T12:09:47;102508.00;;;21.11;nan
14343;BME280;7255;53.596;9.960;2022-08-06T12:12:37;102504.28;;;21.18;nan
14343;BME280;7255;53.596;9.960;2022-08-06T12:15:35;102517.34;;;20.76;nan
14343;BME280;7255;53.596;9.960;2022-08-06T12:18:01;102507.91;;;20.67;nan
14343;BME280;7255;53.596;9.960;2022-08-06T12:20:29;102504.25;;;20.79;nan
14343;BME280;7255;53.596;9.960;2022-08-06T12:22:57;102516.84;;;20.80;nan
14343;BME280;7255;53.596;9.960;2022-08-06T12:25:29;102510.72;;;20.72;nan
14343;BME280;7255;53.596;9.960;2022-08-06T12:27:56;102514.37;;;20.61;nan
14343;BME280;7255;53.596;9.960;2022-08-06T12:30:24;102503.12;;;20.41;nan
14343;BME280;7255;53.596;9.960;2022-08-06T12:32:58;102507.22;;;20.60;nan
14343;BME280;7255;53.596;9.960;2022-08-06T12:35:26;102498.47;;;20.92;nan
14343;BME280;7255;53.596;9.960;2022-08-06T12:37:53;102505.94;;;20.80;nan
14343;BME280;7255;53.596;9.960;2022-08-06T12:40:20;102503.59;;;20.71;nan
14343;BME280;7255;53.596;9.960;2022-08-06T12:42:54;102495.34;;;20.66;nan
14343;BME280;7255;53.596;9.960;2022-08-06T12:45:22;102504.06;;;21.02;nan
14343;BME280;7255;53.596;9.960;2022-08-06T12:47:57;102518.84;;;20.67;nan
14343;BME280;7255;53.596;9.960;2022-08-06T12:50:25;102506.06;;;20.90;nan
14343;BME280;7255;53.596;9.960;2022-08-06T12:53:01;102501.88;;;21.04;nan
14343;BME280;7255;53.596;9.960;2022-08-06T12:55:28;102508.47;;;21.25;nan
14343;BME280;7255;53.596;9.960;2022-08-06T12:57:54;102503.81;;;21.26;nan
14343;BME280;7255;53.596;9.960;2022-08-06T13:00:21;102503.75;;;21.43;nan
14343;BME280;7255;53.596;9.960;2022-08-06T13:02:48;102505.78;;;21.75;nan
14343;BME280;7255;53.596;9.960;2022-08-06T13:05:17;102508.91;;;21.83;nan
14343;BME280;7255;53.596;9.960;2022-08-06T13:07:44;102513.00;;;21.59;nan
14343;BME280;7255;53.596;9.960;2022-08-06T13:10:12;102507.06;;;21.45;nan
14343;BME280;7255;53.596;9.960;2022-08-06T13:12:39;102516.44;;;21.71;nan
14343;BME280;7255;53.596;9.960;2022-08-06T13:15:11;102509.59;;;21.73;nan
14343;BME280;7255;53.596;9.960;2022-08-06T13:17:38;102511.16;;;21.91;nan
14343;BME280;7255;53.596;9.960;2022-08-06T13:20:04;102516.31;;;21.88;nan
14343;BME280;7255;53.596;9.960;2022-08-06T13:22:48;102490.87;;;21.87;nan
14343;BME280;7255;53.596;9.960;2022-08-06T13:25:15;102509.00;;;21.94;nan
14343;BME280;7255;53.596;9.960;2022-08-06T13:27:41;102507.53;;;21.59;nan
14343;BME280;7255;53.596;9.960;2022-08-06T13:30:09;102500.50;;;21.68;nan
14343;BME280;7255;53.596;9.960;2022-08-06T13:32:36;102508.72;;;21.68;nan
14343;BME280;7255;53.596;9.960;2022-08-06T13:35:04;102493.78;;;21.53;nan
14343;BME280;7255;53.596;9.960;2022-08-06T13:37:45;102497.34;;;21.76;nan
14343;BME280;7255;53.596;9.960;2022-08-06T13:40:13;102490.19;;;22.02;nan
14343;BME280;7255;53.596;9.960;2022-08-06T13:42:50;102486.25;;;22.20;nan
14343;BME280;7255;53.596;9.960;2022-08-06T13:45:21;102487.75;;;22.06;nan